Terminal Aerodrome Forecast
Issued by NWS

Home | Current Version | Previous Version | Text Only | Print | Product List | Glossary On
Versions: 1 2 3 4 5 6 7 8 9 10 11 12 13 14 15 16 17 18 19 20 21 22 23 24 25 26 27
000
FTUS41 KOKX 012300
TAFTEB
TAF
KTEB 012327Z 0200/0224 VRB04KT 2SM -SN BR BKN015 OVC025
     FM020200 VRB04KT 4SM -SNPL OVC015
     FM020500 VRB04KT 4SM BR OVC010
     FM020900 29006KT P6SM SCT015 BKN025
     FM021200 30010G18KT P6SM SCT025 BKN050
     FM021500 30014G23KT P6SM FEW050 SCT250
     FM022200 30012KT P6SM SCT250=

USA.gov is the U.S. government's official web portal to all federal, state and local government web resources and services.